Latest Weather Observations for Maitland Airport

IDN60801

Issued at 10:03 pm EST Tuesday 4 August 2020 (issued every 10 minutes, with the page automatically refreshed every 10 minutes)

About weather observations | Map of weather stations | Latest weather observations for NSW | Other Formats
Station Details ID: 061428 Name: MAITLAND AIRPORT AWS Lat: -32.70 Lon: 151.49 Height: 27.5 m
Data from the previous 72 hours. | See also: Recent months at Maitland Airport
Date/Time
EST
Temp
°C
App
Temp
°C
Dew
Point
°C
Rel
Hum
%
Delta-T
°C
Wind Press
QNH
hPa
Press
MSL
hPa
Rain since
9am
mm
Dir  Spd
km/h
Gust
km/h
Spd
kts
Gust
kts
04/10:00pm 12.1 9.1 4.3 59 3.5 NW 9 9 5 5 1012.1 1012.1 0.0
04/09:30pm 11.3 10.0 4.1 61 3.2 CALM 0 0 0 0 1012.0 1012.0 0.0
04/09:00pm 11.7 9.6 3.7 58 3.6 NW 4 7 2 4 1011.9 1011.9 0.0
04/08:30pm 12.9 10.4 3.8 54 4.1 NW 6 6 3 3 1011.6 1011.6 0.0
04/08:00pm 12.4 9.7 3.9 56 3.8 NW 7 11 4 6 1011.5 1011.5 0.0
04/07:30pm 13.6 10.9 3.9 52 4.4 NW 7 11 4 6 1011.4 1011.4 0.0
04/07:00pm 13.1 11.0 3.7 53 4.2 NW 4 7 2 4 1011.2 1011.2 0.0
04/06:30pm 15.3 12.8 3.5 45 5.4 NW 6 9 3 5 1010.9 1010.9 0.0
04/06:00pm 16.7 13.5 3.1 40 6.2 NW 9 11 5 6 1010.5 1010.5 0.0
04/05:30pm 17.9 13.9 2.6 36 7.0 WNW 13 22 7 12 1010.1 1010.1 0.0
04/05:00pm 19.1 13.7 2.5 33 7.7 WNW 20 32 11 17 1009.8 1009.8 0.0
04/04:30pm 20.2 14.5 3.0 32 8.1 WNW 22 39 12 21 1009.5 1009.5 0.0
04/04:00pm 20.9 14.8 2.7 30 8.6 WNW 24 35 13 19 1009.3 1009.3 0.0
04/03:30pm 21.2 13.8 2.0 28 8.9 NW 30 43 16 23 1008.8 1008.8 0.0
04/03:00pm 21.2 15.4 4.3 33 8.2 NW 24 35 13 19 1008.7 1008.7 0.0
04/02:30pm 21.1 14.8 3.8 32 8.3 NW 26 41 14 22 1008.8 1008.8 0.0
04/02:13pm 21.2 14.5 3.9 32 8.3 NW 28 46 15 25 1008.9 1008.9 0.0
04/02:00pm 21.0 14.3 3.7 32 8.3 NW 28 43 15 23 1009.0 1009.0 0.0
04/01:30pm 21.0 14.2 3.2 31 8.4 WNW 28 46 15 25 1009.3 1009.3 0.0
04/01:06pm 20.9 13.5 4.0 33 8.1 WNW 32 50 17 27 1009.5 1009.5 0.0
04/01:00pm 20.5 13.5 4.1 34 7.9 WNW 30 43 16 23 1009.5 1009.5 0.0
04/12:30pm 20.4 14.2 6.0 39 7.2 WNW 28 46 15 25 1010.1 1010.1 0.0
04/12:26pm 20.2 13.7 4.7 36 7.5 WNW 28 46 15 25 1010.1 1010.1 0.0
04/12:00pm 19.9 14.6 7.0 43 6.5 WNW 24 33 13 18 1010.7 1010.7 0.0
04/11:30am 19.0 14.7 6.8 45 6.1 NW 19 30 10 16 1011.4 1011.4 0.0
04/11:00am 18.0 13.4 6.5 47 5.7 WNW 20 28 11 15 1012.1 1012.1 0.0
04/10:30am 17.3 13.6 6.2 48 5.4 WNW 15 24 8 13 1012.7 1012.7 0.0
04/10:00am 16.4 12.5 7.3 55 4.5 WNW 17 24 9 13 1013.1 1013.1 0.0
04/09:30am 14.5 9.6 6.8 60 3.7 NW 22 32 12 17 1013.3 1013.3 0.0
04/09:00am 12.7 9.2 7.0 68 2.7 NW 15 22 8 12 1013.6 1013.6 0.2
04/08:30am 10.7 6.6 6.1 73 2.1 NW 17 24 9 13 1013.7 1013.7 0.2
04/08:00am 9.7 6.7 6.1 78 1.7 WNW 11 17 6 9 1013.8 1013.8 0.2
04/07:30am 8.2 5.1 5.5 83 1.2 WNW 11 17 6 9 1013.8 1013.8 0.2
04/07:00am 5.8 3.5 5.5 98 0.1 WNW 7 11 4 6 1013.9 1013.9 0.2
04/06:30am 4.9 2.9 4.3 96 0.3 WNW 4 7 2 4 1013.9 1013.9 0.2
04/06:00am 5.1 3.9 4.8 98 0.1 CALM 0 0 0 0 1014.0 1014.0 0.2
04/05:30am 5.1 3.8 4.1 93 0.4 CALM 0 0 0 0 1013.7 1013.7 0.2
04/05:00am 6.4 5.3 5.2 92 0.5 CALM 0 0 0 0 1013.8 1013.8 0.2
04/04:30am 6.8 4.3 3.8 81 1.3 WNW 6 9 3 5 1014.0 1014.0 0.2
04/04:00am 8.7 6.0 5.4 80 1.5 WNW 9 13 5 7 1014.1 1014.1 0.2
04/03:30am 9.3 5.9 5.7 78 1.6 WNW 13 15 7 8 1014.2 1014.2 0.2
04/03:00am 9.4 6.4 5.8 78 1.6 WNW 11 15 6 8 1014.2 1014.2 0.2
04/02:30am 8.9 6.6 5.6 80 1.5 WNW 7 11 4 6 1014.3 1014.3 0.2
04/02:00am 8.7 6.5 5.4 80 1.5 WNW 6 7 3 4 1014.6 1014.6 0.2
04/01:30am 9.8 8.5 5.8 76 1.8 WNW 2 11 1 6 1015.0 1015.0 0.2
04/01:00am 10.8 8.1 5.8 71 2.3 WNW 9 11 5 6 1015.2 1015.2 0.2
04/12:30am 11.1 8.1 5.8 70 2.5 WNW 11 15 6 8 1015.2 1015.2 0.2
04/12:00am 10.7 7.7 6.1 73 2.1 WNW 11 15 6 8 1015.6 1015.6 0.2
 
Date/Time
EST
Temp
°C
App
Temp
°C
Dew
Point
°C
Rel
Hum
%
Delta-T
°C
Wind Press
QNH
hPa
Press
MSL
hPa
Rain since
9am
mm
Dir  Spd
km/h
Gust
km/h
Spd
kts
Gust
kts
03/11:30pm 11.3 8.6 5.8 69 2.6 WNW 9 13 5 7 1015.8 1015.8 0.2
03/11:00pm 12.0 9.2 5.2 63 3.1 WNW 9 13 5 7 1016.2 1016.2 0.2
03/10:30pm 11.7 8.2 5.6 66 2.8 WNW 13 15 7 8 1016.1 1016.1 0.2
03/10:00pm 11.9 8.9 6.0 67 2.8 WNW 11 13 6 7 1016.2 1016.2 0.2
03/09:30pm 12.5 9.5 6.1 65 3.0 WNW 11 13 6 7 1016.2 1016.2 0.2
03/09:00pm 12.6 9.6 6.2 65 3.0 WNW 11 13 6 7 1016.1 1016.1 0.2
03/08:30pm 12.9 9.6 6.3 64 3.1 WNW 13 15 7 8 1016.1 1016.1 0.2
03/08:00pm 12.4 10.2 6.2 66 2.9 NW 7 9 4 5 1016.0 1016.0 0.2
03/07:30pm 12.2 11.4 6.3 67 2.8 CALM 0 0 0 0 1015.9 1015.9 0.2
03/07:00pm 13.7 11.4 5.6 58 3.8 NW 7 9 4 5 1015.7 1015.7 0.2
03/06:30pm 16.0 13.2 5.3 49 5.1 NW 9 13 5 7 1015.7 1015.7 0.2
03/06:00pm 16.7 13.1 5.0 46 5.6 NW 13 20 7 11 1015.6 1015.6 0.2
03/05:30pm 16.5 13.8 5.8 49 5.2 NNW 9 15 5 8 1015.5 1015.5 0.2
03/05:00pm 17.7 15.1 5.9 46 5.8 NW 9 17 5 9 1015.5 1015.5 0.2
03/04:30pm 18.9 15.4 5.4 41 6.6 NW 13 20 7 11 1015.4 1015.4 0.2
03/04:00pm 19.6 15.2 4.9 38 7.1 NW 17 22 9 12 1015.4 1015.4 0.2
03/03:30pm 20.1 16.1 6.8 42 6.7 WNW 17 26 9 14 1015.5 1015.5 0.2
03/03:00pm 20.5 16.3 5.7 38 7.3 WNW 17 28 9 15 1015.7 1015.7 0.2
03/02:30pm 20.7 15.8 5.1 36 7.7 WNW 20 33 11 18 1015.9 1015.9 0.2
03/02:00pm 20.3 15.2 5.9 39 7.2 WNW 22 35 12 19 1016.2 1016.2 0.2
03/01:30pm 19.8 15.2 6.5 42 6.7 WNW 20 26 11 14 1016.4 1016.4 0.2
03/01:00pm 18.9 14.3 6.7 45 6.1 WNW 20 30 11 16 1017.1 1017.1 0.0
03/12:30pm 19.1 14.0 7.5 47 5.9 WNW 24 33 13 18 1017.7 1017.7 0.0
03/12:00pm 18.5 14.4 8.7 53 5.1 NW 20 32 11 17 1018.4 1018.4 0.0
03/11:30am 17.0 14.0 9.2 60 4.1 NW 15 24 8 13 1019.1 1019.1 0.0
03/11:00am 14.8 12.2 9.2 69 2.9 W 13 20 7 11 1019.8 1019.8 0.0
03/10:30am 12.9 10.0 8.2 73 2.3 W 13 17 7 9 1020.1 1020.1 0.0
03/10:00am 12.1 10.0 8.2 77 1.9 WNW 9 15 5 8 1020.5 1020.5 0.0
03/09:30am 10.5 7.0 7.2 80 1.6 WNW 15 22 8 12 1021.0 1021.0 0.0
03/09:00am 9.5 6.8 7.3 86 1.0 NW 11 17 6 9 1021.2 1021.2 0.0
03/08:30am 7.9 5.0 6.5 91 0.6 WNW 11 15 6 8 1021.3 1021.3 0.0
03/08:00am 6.7 4.2 6.6 99 0.0 NW 9 13 5 7 1021.2 1021.2 0.0
03/07:30am 5.5 3.3 5.5 100 0.0 WSW 6 9 3 5 1021.0 1021.0 0.0
03/07:00am 4.3 3.0 4.3 100 0.0 CALM 0 0 0 0 1020.7 1020.7 0.0
03/06:30am 3.9 2.6 3.9 100 0.0 CALM 0 0 0 0 1020.6 1020.6 0.0
03/06:00am 4.2 2.5 4.2 100 0.0 WNW 2 6 1 3 1020.3 1020.3 0.0
03/05:30am 4.9 3.4 4.9 100 0.0 WNW 2 9 1 5 1020.3 1020.3 0.0
03/05:00am 5.1 3.2 5.1 100 0.0 WNW 4 7 2 4 1020.2 1020.2 0.0
03/04:34am 4.2 2.9 4.2 100 0.0 CALM 0 0 0 0 1020.6 1020.6 0.0
03/04:30am 4.5 3.3 4.5 100 0.0 CALM 0 0 0 0 1020.6 1020.6 0.0
03/04:22am 4.8 3.6 4.8 100 0.0 CALM 0 0 0 0 1020.5 1020.5 0.0
03/04:00am 5.7 4.7 5.6 99 0.0 CALM 0 0 0 0 1020.6 1020.6 0.0
03/03:30am 5.6 4.1 5.0 96 0.3 WNW 2 7 1 4 1020.7 1020.7 0.0
03/03:00am 6.0 4.6 5.7 98 0.1 WNW 2 9 1 5 1020.6 1020.6 0.0
03/02:30am 6.2 5.3 6.1 99 0.0 CALM 0 0 0 0 1020.9 1020.9 0.0
03/02:00am 6.9 6.2 6.8 99 0.0 CALM 0 0 0 0 1021.2 1021.2 0.0
03/01:30am 7.4 5.4 7.3 99 0.0 WNW 7 9 4 5 1021.3 1021.3 0.0
03/01:00am 7.2 4.8 7.2 100 0.0 WNW 9 17 5 9 1021.8 1021.8 0.0
03/12:35am 6.6 5.4 6.6 100 0.0 WNW 2 7 1 4 1021.8 1021.8 0.0
03/12:30am 6.3 5.5 6.3 100 0.0 CALM 0 0 0 0 1021.7 1021.7 0.0
03/12:17am 6.2 5.3 6.2 100 0.0 CALM 0 0 0 0 1021.8 1021.8 0.0
03/12:00am 6.6 5.8 6.6 100 0.0 CALM 0 0 0 0 1021.7 1021.7 0.0
 
Date/Time
EST
Temp
°C
App
Temp
°C
Dew
Point
°C
Rel
Hum
%
Delta-T
°C
Wind Press
QNH
hPa
Press
MSL
hPa
Rain since
9am
mm
Dir  Spd
km/h
Gust
km/h
Spd
kts
Gust
kts
02/11:30pm 6.9 6.2 6.9 100 0.0 CALM 0 0 0 0 1022.0 1022.0 0.0
02/11:00pm 7.3 6.7 7.2 99 0.0 CALM 0 0 0 0 1022.2 1022.2 0.0
02/10:30pm 7.7 7.2 7.7 100 0.0 CALM 0 0 0 0 1022.3 1022.3 0.0
02/10:00pm 6.7 4.7 6.4 98 0.1 WNW 6 9 3 5 1022.4 1022.4 0.0
02/09:30pm 8.3 6.6 8.2 99 0.0 WNW 7 9 4 5 1022.5 1022.5 0.0
02/09:00pm 7.2 4.6 6.1 93 0.5 WNW 9 9 5 5 1022.7 1022.7 0.0
02/08:30pm 8.0 7.2 6.6 91 0.6 CALM 0 0 0 0 1022.7 1022.7 0.0
02/08:00pm 9.1 8.4 7.1 87 0.9 CALM 0 0 0 0 1022.7 1022.7 0.0
02/07:30pm 9.1 7.7 7.1 87 0.9 WNW 4 7 2 4 1022.8 1022.8 0.0
02/07:00pm 9.4 8.6 6.5 82 1.3 CALM 0 0 0 0 1022.6 1022.6 0.0
02/06:30pm 11.3 10.6 6.8 74 2.1 CALM 0 0 0 0 1022.6 1022.6 0.0
02/06:00pm 11.8 11.2 7.3 74 2.2 CALM 0 0 0 0 1022.6 1022.6 0.0
02/05:30pm 14.1 13.5 7.4 64 3.3 CALM 0 0 0 0 1022.4 1022.4 0.0
02/05:00pm 16.1 15.4 7.1 55 4.4 CALM 0 0 0 0 1022.3 1022.3 0.0
02/04:30pm 19.3 18.6 6.8 44 6.3 CALM 0 0 0 0 1022.3 1022.3 0.0
02/04:00pm 19.8 18.6 4.7 37 7.3 CALM 0 0 0 0 1022.3 1022.3 0.0
02/03:30pm 20.2 18.3 5.1 37 7.4 WNW 4 9 2 5 1022.2 1022.2 0.0
02/03:00pm 20.2 17.9 5.8 39 7.1 WNW 7 9 4 5 1022.3 1022.3 0.0
02/02:30pm 19.4 17.2 5.1 39 7.0 W 6 7 3 4 1022.4 1022.4 0.0
02/02:00pm 19.6 17.0 6.0 41 6.7 NW 9 11 5 6 1022.6 1022.6 0.0
02/01:30pm 18.8 15.5 6.6 45 6.1 WNW 13 19 7 10 1022.9 1022.9 0.0
02/01:00pm 18.5 15.0 7.3 48 5.6 WNW 15 20 8 11 1023.2 1023.2 0.0
02/12:30pm 18.3 15.5 8.6 53 5.0 W 13 20 7 11 1023.7 1023.7 0.0
02/12:00pm 17.7 15.6 9.8 60 4.2 NW 11 17 6 9 1024.3 1024.3 0.0
02/11:30am 16.7 14.0 9.1 61 3.9 NW 13 20 7 11 1024.6 1024.6 0.0
02/11:00am 15.7 12.6 8.7 63 3.6 WNW 15 24 8 13 1025.3 1025.3 0.0
02/10:30am 14.4 10.4 8.1 66 3.1 WNW 19 28 10 15 1025.4 1025.4 0.0
02/10:00am 13.6 11.0 9.3 75 2.2 W 13 20 7 11 1025.6 1025.6 0.0
02/09:30am 11.8 8.3 8.6 81 1.6 WNW 17 24 9 13 1025.9 1025.9 0.0
02/09:00am 10.2 7.3 8.1 87 1.0 WNW 13 19 7 10 1025.9 1025.9 0.0
02/08:30am 8.9 6.7 7.7 92 0.6 NW 9 15 5 8 1025.7 1025.7 0.0
02/08:00am 8.0 5.7 7.4 96 0.3 NW 9 19 5 10 1025.6 1025.6 0.0
02/07:30am 7.1 4.7 7.1 100 0.0 WNW 9 17 5 9 1025.4 1025.4 0.0
02/07:00am 5.0 3.5 5.0 100 0.0 WNW 2 7 1 4 1025.3 1025.3 0.0
02/06:39am 4.6 3.4 4.6 100 0.0 CALM 0 0 0 0 1024.9 1024.9 0.0
02/06:30am 4.5 3.3 4.5 100 0.0 CALM 0 0 0 0 1024.7 1024.7 0.0
02/06:02am 4.6 3.4 4.6 100 0.0 CALM 0 0 0 0 1024.4 1024.4 0.0
02/06:00am 4.5 3.3 4.5 100 0.0 CALM 0 0 0 0 1024.4 1024.4 0.0
02/05:30am 5.5 4.1 5.5 100 0.0 WNW 2 9 1 5 1024.1 1024.1 0.0
02/05:00am 4.1 2.8 4.1 100 0.0 CALM 0 0 0 0 1023.9 1023.9 0.0
02/04:30am 4.1 2.8 4.1 100 0.0 CALM 0 0 0 0 1023.6 1023.6 0.0
02/04:00am 3.7 2.3 3.7 100 0.0 CALM 0 0 0 0 1023.7 1023.7 0.0
02/03:30am 3.6 2.2 3.6 100 0.0 CALM 0 0 0 0 1023.7 1023.7 0.0
02/03:22am 3.5 2.1 3.5 100 0.0 CALM 0 0 0 0 1023.7 1023.7 0.0
02/03:00am 3.9 2.6 3.9 100 0.0 CALM 0 0 0 0 1023.7 1023.7 0.0
02/02:30am 4.4 3.2 4.4 100 0.0 CALM 0 0 0 0 1023.9 1023.9 0.0
02/02:00am 4.2 2.9 4.2 100 0.0 CALM 0 0 0 0 1024.2 1024.2 0.0
02/01:30am 4.1 2.8 4.1 100 0.0 CALM 0 0 0 0 1024.3 1024.3 0.0
02/01:03am 4.7 3.5 4.7 100 0.0 CALM 0 0 0 0 1024.4 1024.4 0.0
02/01:00am 5.1 4.0 5.1 100 0.0 CALM 0 0 0 0 1024.4 1024.4 0.0
02/12:44am 5.6 4.6 5.6 100 0.0 CALM 0 0 0 0 1024.3 1024.3 0.0
02/12:30am 6.1 5.2 6.1 100 0.0 CALM 0 0 0 0 1024.4 1024.4 0.0
02/12:00am 5.9 5.0 5.9 100 0.0 CALM 0 0 0 0 1024.5 1024.5 0.0
 
Date/Time
EST
Temp
°C
App
Temp
°C
Dew
Point
°C
Rel
Hum
%
Delta-T
°C
Wind Press
QNH
hPa
Press
MSL
hPa
Rain since
9am
mm
Dir  Spd
km/h
Gust
km/h
Spd
kts
Gust
kts
01/11:30pm 6.0 5.1 6.0 100 0.0 CALM 0 0 0 0 1024.5 1024.5 0.0
01/11:00pm 6.3 5.5 6.3 100 0.0 CALM 0 0 0 0 1024.6 1024.6 0.0
01/10:30pm 6.2 5.3 5.9 98 0.1 CALM 0 0 0 0 1024.6 1024.6 0.0

Other formats

Comma delimited format used in spreadsheet applications
http://www.bom.gov.au/fwo/IDN60801/IDN60801.94650.axf

JavaScript Object Notation format (JSON) in row-major order
http://www.bom.gov.au/fwo/IDN60801/IDN60801.94650.json

Data quality

Most of these data are generated automatically and are frequently updated. Quality checks on data are not normally performed. It is possible for incorrect values to appear. Refer to information at About Latest Weather Observations and please check the disclaimer before using these data.